Terminal Aerodrome Forecast
Issued by NWS

Home | Current Version | Previous Version | Text Only | Print | Product List | Glossary On
Versions: 1 2 3 4 5 6 7 8 9 10 11 12 13 14 15 16 17
331
FTUS43 KMQT 261729
TAFIWD
TAF
KIWD 261729Z 2618/2718 27017G29KT 5SM -SHRA OVC015
     FM271100 28014G26KT 6SM -SHRA OVC008
     FM271700 31015G27KT 4SM -SHRA OVC008=

USA.gov is the U.S. government's official web portal to all federal, state and local government web resources and services.